sensor_id;sensor_type;location;lat;lon;timestamp;noise_LAeq;noise_LA_min;noise_LA_max;noise_LA01;noise_LA95
43512;Laerm;34054;52.100;5.116;2022-07-03T00:00:09;45.70;34.64;60.53;;
43512;Laerm;34054;52.100;5.116;2022-07-03T00:00:41;45.27;33.89;49.24;;
43512;Laerm;34054;52.100;5.116;2022-07-03T00:01:13;45.45;34.99;49.23;;
43512;Laerm;34054;52.100;5.116;2022-07-03T00:01:45;45.52;34.79;49.03;;
43512;Laerm;34054;52.100;5.116;2022-07-03T00:02:17;45.62;34.89;49.93;;
43512;Laerm;34054;52.100;5.116;2022-07-03T00:02:49;46.37;34.62;57.17;;
43512;Laerm;34054;52.100;5.116;2022-07-03T00:03:20;45.81;33.83;51.91;;
43512;Laerm;34054;52.100;5.116;2022-07-03T00:03:53;45.66;35.47;51.90;;
43512;Laerm;34054;52.100;5.116;2022-07-03T00:04:24;45.47;34.07;49.22;;
43512;Laerm;34054;52.100;5.116;2022-07-03T00:04:56;45.54;34.34;49.90;;
43512;Laerm;34054;52.100;5.116;2022-07-03T00:05:29;46.56;34.85;55.30;;
43512;Laerm;34054;52.100;5.116;2022-07-03T00:06:00;45.43;34.11;49.41;;
43512;Laerm;34054;52.100;5.116;2022-07-03T00:06:33;45.62;34.65;49.40;;
43512;Laerm;34054;52.100;5.116;2022-07-03T00:07:06;45.78;34.46;50.76;;
43512;Laerm;34054;52.100;5.116;2022-07-03T00:07:38;45.54;34.62;49.56;;
43512;Laerm;34054;52.100;5.116;2022-07-03T00:08:09;45.48;34.97;49.34;;
43512;Laerm;34054;52.100;5.116;2022-07-03T00:08:42;45.30;34.01;49.27;;
43512;Laerm;34054;52.100;5.116;2022-07-03T00:09:14;45.37;33.92;49.14;;
43512;Laerm;34054;52.100;5.116;2022-07-03T00:09:45;46.44;34.23;54.87;;
43512;Laerm;34054;52.100;5.116;2022-07-03T00:10:19;45.57;35.01;51.51;;
43512;Laerm;34054;52.100;5.116;2022-07-03T00:10:51;45.53;35.01;49.52;;
43512;Laerm;34054;52.100;5.116;2022-07-03T00:11:23;45.45;34.00;49.28;;
43512;Laerm;34054;52.100;5.116;2022-07-03T00:11:55;45.42;34.10;49.59;;
43512;Laerm;34054;52.100;5.116;2022-07-03T00:12:27;45.72;34.35;49.47;;
43512;Laerm;34054;52.100;5.116;2022-07-03T00:12:59;47.01;36.55;57.42;;
43512;Laerm;34054;52.100;5.116;2022-07-03T00:13:32;46.42;37.31;50.73;;
43512;Laerm;34054;52.100;5.116;2022-07-03T00:14:03;46.28;35.73;49.75;;
43512;Laerm;34054;52.100;5.116;2022-07-03T00:14:35;45.47;34.28;49.46;;
43512;Laerm;34054;52.100;5.116;2022-07-03T00:15:09;45.47;34.10;49.36;;
43512;Laerm;34054;52.100;5.116;2022-07-03T00:15:40;45.80;35.28;49.24;;
43512;Laerm;34054;52.100;5.116;2022-07-03T00:16:12;45.96;34.73;50.17;;
43512;Laerm;34054;52.100;5.116;2022-07-03T00:16:45;46.22;36.08;49.55;;
43512;Laerm;34054;52.100;5.116;2022-07-03T00:17:17;45.42;34.59;49.10;;
43512;Laerm;34054;52.100;5.116;2022-07-03T00:17:49;45.64;34.16;49.51;;
43512;Laerm;34054;52.100;5.116;2022-07-03T00:18:21;45.74;35.66;58.79;;
43512;Laerm;34054;52.100;5.116;2022-07-03T00:18:53;45.38;33.67;49.73;;
43512;Laerm;34054;52.100;5.116;2022-07-03T00:19:26;45.39;33.56;49.44;;
43512;Laerm;34054;52.100;5.116;2022-07-03T00:19:58;45.35;34.28;49.44;;
43512;Laerm;34054;52.100;5.116;2022-07-03T00:20:39;44.64;34.48;49.02;;
43512;Laerm;34054;52.100;5.116;2022-07-03T00:21:18;45.12;34.82;49.81;;
43512;Laerm;34054;52.100;5.116;2022-07-03T00:21:55;44.73;34.32;50.21;;
43512;Laerm;34054;52.100;5.116;2022-07-03T00:22:30;45.07;33.97;49.84;;
43512;Laerm;34054;52.100;5.116;2022-07-03T00:23:10;44.64;33.75;49.25;;
43512;Laerm;34054;52.100;5.116;2022-07-03T00:23:48;44.64;34.28;48.98;;
43512;Laerm;34054;52.100;5.116;2022-07-03T00:24:28;44.64;34.06;49.53;;
43512;Laerm;34054;52.100;5.116;2022-07-03T00:25:04;44.77;33.70;49.12;;
43512;Laerm;34054;52.100;5.116;2022-07-03T00:25:40;44.93;34.03;49.29;;
43512;Laerm;34054;52.100;5.116;2022-07-03T00:26:13;45.47;34.43;52.24;;
43512;Laerm;34054;52.100;5.116;2022-07-03T00:26:51;45.30;34.60;49.71;;
43512;Laerm;34054;52.100;5.116;2022-07-03T00:27:25;45.54;34.88;57.19;;
43512;Laerm;34054;52.100;5.116;2022-07-03T00:27:58;46.74;36.35;55.40;;
43512;Laerm;34054;52.100;5.116;2022-07-03T00:28:31;45.45;34.97;49.96;;
43512;Laerm;34054;52.100;5.116;2022-07-03T00:29:04;45.45;34.84;49.75;;
43512;Laerm;34054;52.100;5.116;2022-07-03T00:29:42;44.80;33.92;49.37;;
43512;Laerm;34054;52.100;5.116;2022-07-03T00:30:15;45.96;34.48;55.15;;
43512;Laerm;34054;52.100;5.116;2022-07-03T00:30:48;46.58;35.15;54.54;;
43512;Laerm;34054;52.100;5.116;2022-07-03T00:31:23;46.34;35.14;55.13;;
43512;Laerm;34054;52.100;5.116;2022-07-03T00:31:55;47.13;34.52;59.13;;
43512;Laerm;34054;52.100;5.116;2022-07-03T00:32:28;47.21;33.72;59.87;;
43512;Laerm;34054;52.100;5.116;2022-07-03T00:33:03;45.88;34.59;56.01;;
43512;Laerm;34054;52.100;5.116;2022-07-03T00:33:36;45.13;34.18;49.17;;
43512;Laerm;34054;52.100;5.116;2022-07-03T00:34:15;44.81;33.94;49.19;;
43512;Laerm;34054;52.100;5.116;2022-07-03T00:34:51;45.31;34.92;49.55;;
43512;Laerm;34054;52.100;5.116;2022-07-03T00:35:24;45.19;34.68;49.68;;
43512;Laerm;34054;52.100;5.116;2022-07-03T00:35:56;45.35;33.94;49.57;;
43512;Laerm;34054;52.100;5.116;2022-07-03T00:36:34;44.76;33.83;49.08;;
43512;Laerm;34054;52.100;5.116;2022-07-03T00:37:09;45.20;33.87;49.27;;
43512;Laerm;34054;52.100;5.116;2022-07-03T00:37:42;45.30;34.06;49.08;;
43512;Laerm;34054;52.100;5.116;2022-07-03T00:38:13;46.36;34.49;51.41;;
43512;Laerm;34054;52.100;5.116;2022-07-03T00:38:45;46.56;35.58;50.37;;
43512;Laerm;34054;52.100;5.116;2022-07-03T00:39:17;45.31;34.38;49.27;;
43512;Laerm;34054;52.100;5.116;2022-07-03T00:39:50;45.86;33.95;51.61;;
43512;Laerm;34054;52.100;5.116;2022-07-03T00:40:22;46.64;36.45;52.47;;
43512;Laerm;34054;52.100;5.116;2022-07-03T00:40:56;45.39;34.91;49.63;;
43512;Laerm;34054;52.100;5.116;2022-07-03T00:41:33;44.91;34.25;49.22;;
43512;Laerm;34054;52.100;5.116;2022-07-03T00:42:07;45.14;33.84;49.32;;
43512;Laerm;34054;52.100;5.116;2022-07-03T00:42:40;45.28;33.97;49.30;;
43512;Laerm;34054;52.100;5.116;2022-07-03T00:43:16;45.87;34.25;53.66;;
43512;Laerm;34054;52.100;5.116;2022-07-03T00:43:48;45.53;35.13;49.59;;
43512;Laerm;34054;52.100;5.116;2022-07-03T00:44:21;45.96;35.16;52.89;;
43512;Laerm;34054;52.100;5.116;2022-07-03T00:44:56;47.24;34.87;68.09;;
43512;Laerm;34054;52.100;5.116;2022-07-03T00:45:34;47.93;36.09;56.81;;
43512;Laerm;34054;52.100;5.116;2022-07-03T00:46:07;45.37;34.38;49.57;;
43512;Laerm;34054;52.100;5.116;2022-07-03T00:46:41;45.49;34.98;49.99;;
43512;Laerm;34054;52.100;5.116;2022-07-03T00:47:16;45.97;34.65;52.41;;
43512;Laerm;34054;52.100;5.116;2022-07-03T00:47:48;45.81;35.06;49.29;;
43512;Laerm;34054;52.100;5.116;2022-07-03T00:48:20;45.57;34.72;49.45;;
43512;Laerm;34054;52.100;5.116;2022-07-03T00:48:56;45.25;34.94;49.25;;
43512;Laerm;34054;52.100;5.116;2022-07-03T00:49:31;45.48;34.65;49.90;;
43512;Laerm;34054;52.100;5.116;2022-07-03T00:50:07;45.67;34.17;52.13;;
43512;Laerm;34054;52.100;5.116;2022-07-03T00:50:45;45.78;34.47;53.28;;
43512;Laerm;34054;52.100;5.116;2022-07-03T00:51:22;45.35;35.00;49.73;;
43512;Laerm;34054;52.100;5.116;2022-07-03T00:51:55;45.29;34.66;49.03;;
43512;Laerm;34054;52.100;5.116;2022-07-03T00:52:30;45.25;34.99;49.71;;
43512;Laerm;34054;52.100;5.116;2022-07-03T00:53:02;45.42;34.91;49.13;;
43512;Laerm;34054;52.100;5.116;2022-07-03T00:53:36;45.23;33.58;53.53;;
43512;Laerm;34054;52.100;5.116;2022-07-03T00:54:09;45.54;34.69;49.69;;
43512;Laerm;34054;52.100;5.116;2022-07-03T00:54:52;45.83;35.43;56.09;;
43512;Laerm;34054;52.100;5.116;2022-07-03T00:55:27;45.22;34.24;49.58;;
43512;Laerm;34054;52.100;5.116;2022-07-03T00:56:04;45.21;35.16;49.58;;
43512;Laerm;34054;52.100;5.116;2022-07-03T00:56:41;45.17;34.90;50.22;;
43512;Laerm;34054;52.100;5.116;2022-07-03T00:57:17;45.24;34.92;49.49;;
43512;Laerm;34054;52.100;5.116;2022-07-03T00:57:50;45.47;34.18;49.60;;
43512;Laerm;34054;52.100;5.116;2022-07-03T00:58:22;45.47;34.54;49.39;;
43512;Laerm;34054;52.100;5.116;2022-07-03T00:58:56;45.54;35.45;49.19;;
43512;Laerm;34054;52.100;5.116;2022-07-03T00:59:29;45.33;34.95;49.27;;
43512;Laerm;34054;52.100;5.116;2022-07-03T01:00:01;45.35;34.19;49.62;;
43512;Laerm;34054;52.100;5.116;2022-07-03T01:00:39;45.10;35.21;49.33;;
43512;Laerm;34054;52.100;5.116;2022-07-03T01:01:18;44.88;34.40;49.34;;
43512;Laerm;34054;52.100;5.116;2022-07-03T01:02:02;44.77;34.25;49.40;;
43512;Laerm;34054;52.100;5.116;2022-07-03T01:02:46;44.14;34.47;49.47;;
43512;Laerm;34054;52.100;5.116;2022-07-03T01:03:27;44.56;34.77;49.28;;
43512;Laerm;34054;52.100;5.116;2022-07-03T01:04:21;43.56;34.13;49.68;;
43512;Laerm;34054;52.100;5.116;2022-07-03T01:05:07;44.17;34.52;48.93;;
43512;Laerm;34054;52.100;5.116;2022-07-03T01:05:45;44.57;34.92;49.31;;
43512;Laerm;34054;52.100;5.116;2022-07-03T01:06:17;45.36;34.94;49.19;;
43512;Laerm;34054;52.100;5.116;2022-07-03T01:06:55;45.08;34.40;49.35;;
43512;Laerm;34054;52.100;5.116;2022-07-03T01:07:44;46.98;34.37;58.43;;
43512;Laerm;34054;52.100;5.116;2022-07-03T01:08:36;47.63;38.45;56.51;;
43512;Laerm;34054;52.100;5.116;2022-07-03T01:09:12;47.29;36.53;67.49;;
43512;Laerm;34054;52.100;5.116;2022-07-03T01:09:55;44.48;33.74;49.26;;
43512;Laerm;34054;52.100;5.116;2022-07-03T01:10:40;44.51;34.56;49.38;;
43512;Laerm;34054;52.100;5.116;2022-07-03T01:11:25;44.48;34.44;51.64;;
43512;Laerm;34054;52.100;5.116;2022-07-03T01:12:07;44.71;35.15;49.41;;
43512;Laerm;34054;52.100;5.116;2022-07-03T01:12:58;43.89;33.84;49.36;;
43512;Laerm;34054;52.100;5.116;2022-07-03T01:13:42;44.32;33.97;49.45;;
43512;Laerm;34054;52.100;5.116;2022-07-03T01:14:28;43.93;34.35;49.60;;
43512;Laerm;34054;52.100;5.116;2022-07-03T01:15:10;44.43;33.80;49.41;;
43512;Laerm;34054;52.100;5.116;2022-07-03T01:15:57;43.84;34.18;48.98;;
43512;Laerm;34054;52.100;5.116;2022-07-03T01:16:38;44.18;33.58;49.17;;
43512;Laerm;34054;52.100;5.116;2022-07-03T01:17:24;46.14;34.02;53.73;;
43512;Laerm;34054;52.100;5.116;2022-07-03T01:18:17;43.93;33.36;49.50;;
43512;Laerm;34054;52.100;5.116;2022-07-03T01:19:02;43.87;33.89;48.94;;
43512;Laerm;34054;52.100;5.116;2022-07-03T01:19:40;44.67;34.55;49.10;;
43512;Laerm;34054;52.100;5.116;2022-07-03T01:20:13;45.33;34.71;49.36;;
43512;Laerm;34054;52.100;5.116;2022-07-03T01:20:54;44.74;34.55;49.23;;
43512;Laerm;34054;52.100;5.116;2022-07-03T01:21:36;44.51;34.11;49.40;;
43512;Laerm;34054;52.100;5.116;2022-07-03T01:22:28;36.70;33.65;47.80;;
43512;Laerm;34054;52.100;5.116;2022-07-03T01:23:16;43.64;33.43;48.89;;
43512;Laerm;34054;52.100;5.116;2022-07-03T01:24:37;42.72;34.21;50.24;;
43512;Laerm;34054;52.100;5.116;2022-07-03T01:25:22;42.86;34.11;48.73;;
43512;Laerm;34054;52.100;5.116;2022-07-03T01:26:03;44.56;35.63;50.01;;
43512;Laerm;34054;52.100;5.116;2022-07-03T01:26:39;46.81;34.74;57.66;;
43512;Laerm;34054;52.100;5.116;2022-07-03T01:27:18;44.97;34.49;49.30;;
43512;Laerm;34054;52.100;5.116;2022-07-03T01:28:11;43.58;34.74;49.17;;
43512;Laerm;34054;52.100;5.116;2022-07-03T01:28:46;45.28;34.79;49.38;;
43512;Laerm;34054;52.100;5.116;2022-07-03T01:29:22;45.15;34.13;50.46;;
43512;Laerm;34054;52.100;5.116;2022-07-03T01:30:04;46.74;34.03;58.75;;
43512;Laerm;34054;52.100;5.116;2022-07-03T01:30:42;45.01;34.61;49.63;;
43512;Laerm;34054;52.100;5.116;2022-07-03T01:31:19;44.69;33.74;49.31;;
43512;Laerm;34054;52.100;5.116;2022-07-03T01:31:55;45.04;34.70;49.25;;
43512;Laerm;34054;52.100;5.116;2022-07-03T01:32:33;44.84;34.86;49.55;;
43512;Laerm;34054;52.100;5.116;2022-07-03T01:33:12;44.62;34.86;50.57;;
43512;Laerm;34054;52.100;5.116;2022-07-03T01:33:50;44.69;33.58;49.16;;
43512;Laerm;34054;52.100;5.116;2022-07-03T01:34:33;44.64;34.57;49.25;;
43512;Laerm;34054;52.100;5.116;2022-07-03T01:35:12;44.92;34.62;50.88;;
43512;Laerm;34054;52.100;5.116;2022-07-03T01:35:58;43.90;34.52;49.83;;
43512;Laerm;34054;52.100;5.116;2022-07-03T01:36:31;45.37;34.30;55.55;;
43512;Laerm;34054;52.100;5.116;2022-07-03T01:37:07;46.48;34.74;54.43;;
43512;Laerm;34054;52.100;5.116;2022-07-03T01:37:41;45.81;34.81;56.67;;
43512;Laerm;34054;52.100;5.116;2022-07-03T01:38:14;46.66;35.25;53.33;;
43512;Laerm;34054;52.100;5.116;2022-07-03T01:38:49;45.06;34.34;49.95;;
43512;Laerm;34054;52.100;5.116;2022-07-03T01:39:26;44.95;34.41;49.20;;
43512;Laerm;34054;52.100;5.116;2022-07-03T01:39:58;46.26;35.42;52.34;;
43512;Laerm;34054;52.100;5.116;2022-07-03T01:40:34;45.25;35.04;49.41;;
43512;Laerm;34054;52.100;5.116;2022-07-03T01:41:09;45.05;34.61;49.05;;
43512;Laerm;34054;52.100;5.116;2022-07-03T01:41:44;45.06;35.02;49.38;;
43512;Laerm;34054;52.100;5.116;2022-07-03T01:42:19;45.25;34.96;49.43;;
43512;Laerm;34054;52.100;5.116;2022-07-03T01:42:52;45.46;34.86;49.65;;
43512;Laerm;34054;52.100;5.116;2022-07-03T01:43:29;48.08;35.99;73.70;;
43512;Laerm;34054;52.100;5.116;2022-07-03T01:44:03;45.29;34.29;49.42;;
43512;Laerm;34054;52.100;5.116;2022-07-03T01:44:39;45.20;35.47;49.35;;
43512;Laerm;34054;52.100;5.116;2022-07-03T01:45:15;45.22;35.16;49.21;;
43512;Laerm;34054;52.100;5.116;2022-07-03T01:45:49;45.17;34.54;49.19;;
43512;Laerm;34054;52.100;5.116;2022-07-03T01:46:28;44.96;34.69;49.18;;
43512;Laerm;34054;52.100;5.116;2022-07-03T01:47:02;44.87;34.46;49.21;;
43512;Laerm;34054;52.100;5.116;2022-07-03T01:47:35;45.40;34.50;49.01;;
43512;Laerm;34054;52.100;5.116;2022-07-03T01:48:10;45.12;34.03;49.16;;
43512;Laerm;34054;52.100;5.116;2022-07-03T01:48:44;45.19;34.25;49.41;;
43512;Laerm;34054;52.100;5.116;2022-07-03T01:49:17;45.31;34.07;49.72;;
43512;Laerm;34054;52.100;5.116;2022-07-03T01:49:50;45.48;34.72;49.33;;
43512;Laerm;34054;52.100;5.116;2022-07-03T01:50:25;45.20;34.81;49.43;;
43512;Laerm;34054;52.100;5.116;2022-07-03T01:51:00;44.99;34.80;49.58;;
43512;Laerm;34054;52.100;5.116;2022-07-03T01:51:34;45.27;34.76;49.49;;
43512;Laerm;34054;52.100;5.116;2022-07-03T01:52:10;45.34;34.44;49.75;;
43512;Laerm;34054;52.100;5.116;2022-07-03T01:52:45;46.01;35.16;53.35;;
43512;Laerm;34054;52.100;5.116;2022-07-03T01:53:25;44.81;34.58;50.56;;
43512;Laerm;34054;52.100;5.116;2022-07-03T01:53:59;45.41;35.36;49.86;;
43512;Laerm;34054;52.100;5.116;2022-07-03T01:54:33;46.43;36.86;51.58;;
43512;Laerm;34054;52.100;5.116;2022-07-03T01:55:08;45.19;34.72;50.50;;
43512;Laerm;34054;52.100;5.116;2022-07-03T01:55:42;45.26;34.83;49.49;;
43512;Laerm;34054;52.100;5.116;2022-07-03T01:56:19;45.19;35.34;49.26;;
43512;Laerm;34054;52.100;5.116;2022-07-03T01:56:52;45.51;35.14;49.49;;
43512;Laerm;34054;52.100;5.116;2022-07-03T01:57:28;45.06;35.10;49.44;;
43512;Laerm;34054;52.100;5.116;2022-07-03T01:58:08;44.65;34.68;49.14;;
43512;Laerm;34054;52.100;5.116;2022-07-03T01:58:40;46.01;35.27;50.44;;
43512;Laerm;34054;52.100;5.116;2022-07-03T01:59:14;45.63;36.13;49.59;;
43512;Laerm;34054;52.100;5.116;2022-07-03T01:59:45;45.55;34.11;49.29;;
43512;Laerm;34054;52.100;5.116;2022-07-03T02:00:22;45.08;34.32;49.84;;
43512;Laerm;34054;52.100;5.116;2022-07-03T02:01:02;44.74;34.13;49.18;;
43512;Laerm;34054;52.100;5.116;2022-07-03T02:01:51;43.99;34.71;49.81;;
43512;Laerm;34054;52.100;5.116;2022-07-03T02:02:32;44.11;33.70;49.40;;
43512;Laerm;34054;52.100;5.116;2022-07-03T02:03:06;45.37;34.99;49.17;;
43512;Laerm;34054;52.100;5.116;2022-07-03T02:04:02;44.85;34.86;50.50;;
43512;Laerm;34054;52.100;5.116;2022-07-03T02:04:51;43.35;34.28;54.46;;
43512;Laerm;34054;52.100;5.116;2022-07-03T02:05:38;43.88;33.64;49.20;;
43512;Laerm;34054;52.100;5.116;2022-07-03T02:06:23;44.28;34.93;49.46;;
43512;Laerm;34054;52.100;5.116;2022-07-03T02:07:07;44.08;34.24;49.37;;
43512;Laerm;34054;52.100;5.116;2022-07-03T02:07:44;44.42;34.58;49.11;;
43512;Laerm;34054;52.100;5.116;2022-07-03T02:08:36;43.49;34.61;49.76;;
43512;Laerm;34054;52.100;5.116;2022-07-03T02:09:11;45.00;35.16;49.19;;
43512;Laerm;34054;52.100;5.116;2022-07-03T02:09:49;45.20;34.77;51.32;;
43512;Laerm;34054;52.100;5.116;2022-07-03T02:10:29;44.96;35.32;50.09;;
43512;Laerm;34054;52.100;5.116;2022-07-03T02:11:10;44.77;35.04;49.69;;
43512;Laerm;34054;52.100;5.116;2022-07-03T02:11:44;37.27;34.53;43.07;;
43512;Laerm;34054;52.100;5.116;2022-07-03T02:12:20;44.73;34.89;49.59;;
43512;Laerm;34054;52.100;5.116;2022-07-03T02:13:01;44.28;35.10;56.72;;
43512;Laerm;34054;52.100;5.116;2022-07-03T02:13:50;48.02;34.82;60.19;;
43512;Laerm;34054;52.100;5.116;2022-07-03T02:14:25;50.21;33.78;64.47;;
43512;Laerm;34054;52.100;5.116;2022-07-03T02:15:05;49.87;35.32;61.94;;
43512;Laerm;34054;52.100;5.116;2022-07-03T02:15:43;50.10;35.73;67.15;;
43512;Laerm;34054;52.100;5.116;2022-07-03T02:16:20;49.69;35.02;61.90;;
43512;Laerm;34054;52.100;5.116;2022-07-03T02:17:03;50.02;35.10;62.71;;
43512;Laerm;34054;52.100;5.116;2022-07-03T02:17:45;49.76;34.86;63.26;;
43512;Laerm;34054;52.100;5.116;2022-07-03T02:18:27;49.30;35.45;63.20;;
43512;Laerm;34054;52.100;5.116;2022-07-03T02:19:42;50.12;35.24;64.46;;
43512;Laerm;34054;52.100;5.116;2022-07-03T02:20:16;50.59;35.21;65.08;;
43512;Laerm;34054;52.100;5.116;2022-07-03T02:21:04;50.41;35.27;62.48;;
43512;Laerm;34054;52.100;5.116;2022-07-03T02:21:42;51.43;36.07;63.69;;
43512;Laerm;34054;52.100;5.116;2022-07-03T02:22:20;50.28;35.26;63.24;;
43512;Laerm;34054;52.100;5.116;2022-07-03T02:22:59;51.70;35.76;63.45;;
43512;Laerm;34054;52.100;5.116;2022-07-03T02:23:42;50.75;34.71;63.90;;
43512;Laerm;34054;52.100;5.116;2022-07-03T02:24:20;50.89;36.00;64.10;;
43512;Laerm;34054;52.100;5.116;2022-07-03T02:25:04;51.08;38.23;65.33;;
43512;Laerm;34054;52.100;5.116;2022-07-03T02:25:41;51.28;35.62;63.81;;
43512;Laerm;34054;52.100;5.116;2022-07-03T02:26:16;50.14;35.23;62.70;;
43512;Laerm;34054;52.100;5.116;2022-07-03T02:26:56;47.14;35.48;61.81;;
43512;Laerm;34054;52.100;5.116;2022-07-03T02:27:41;45.93;36.14;61.44;;
43512;Laerm;34054;52.100;5.116;2022-07-03T02:28:27;44.57;35.15;51.01;;
43512;Laerm;34054;52.100;5.116;2022-07-03T02:29:04;46.82;35.68;58.93;;
43512;Laerm;34054;52.100;5.116;2022-07-03T02:29:46;45.06;34.78;49.98;;
43512;Laerm;34054;52.100;5.116;2022-07-03T02:30:18;45.39;34.90;52.61;;
43512;Laerm;34054;52.100;5.116;2022-07-03T02:30:55;45.40;35.28;52.77;;
43512;Laerm;34054;52.100;5.116;2022-07-03T02:31:37;44.74;34.76;49.64;;
43512;Laerm;34054;52.100;5.116;2022-07-03T02:32:13;49.71;35.86;65.29;;
43512;Laerm;34054;52.100;5.116;2022-07-03T02:32:51;45.44;35.01;51.10;;
43512;Laerm;34054;52.100;5.116;2022-07-03T02:33:27;45.35;34.61;49.78;;
43512;Laerm;34054;52.100;5.116;2022-07-03T02:34:02;46.15;35.02;53.40;;
43512;Laerm;34054;52.100;5.116;2022-07-03T02:34:44;46.31;36.18;53.67;;
43512;Laerm;34054;52.100;5.116;2022-07-03T02:35:22;48.36;35.44;61.57;;
43512;Laerm;34054;52.100;5.116;2022-07-03T02:35:57;47.87;38.37;58.36;;
43512;Laerm;34054;52.100;5.116;2022-07-03T02:36:34;46.30;35.03;55.87;;
43512;Laerm;34054;52.100;5.116;2022-07-03T02:37:12;46.18;35.27;54.09;;
43512;Laerm;34054;52.100;5.116;2022-07-03T02:37:48;46.92;34.95;62.74;;
43512;Laerm;34054;52.100;5.116;2022-07-03T02:38:24;45.89;35.18;56.78;;
43512;Laerm;34054;52.100;5.116;2022-07-03T02:38:57;46.44;34.96;55.73;;
43512;Laerm;34054;52.100;5.116;2022-07-03T02:39:38;45.77;35.54;55.82;;
43512;Laerm;34054;52.100;5.116;2022-07-03T02:40:24;44.80;35.38;54.01;;
43512;Laerm;34054;52.100;5.116;2022-07-03T02:41:06;54.18;34.76;68.41;;
43512;Laerm;34054;52.100;5.116;2022-07-03T02:41:46;45.39;35.29;53.67;;
43512;Laerm;34054;52.100;5.116;2022-07-03T02:42:35;46.40;34.78;54.38;;
43512;Laerm;34054;52.100;5.116;2022-07-03T02:43:19;46.52;34.66;56.38;;
43512;Laerm;34054;52.100;5.116;2022-07-03T02:44:01;46.82;34.95;59.72;;
43512;Laerm;34054;52.100;5.116;2022-07-03T02:44:44;46.73;35.62;56.79;;
43512;Laerm;34054;52.100;5.116;2022-07-03T02:45:20;47.06;37.07;58.02;;
43512;Laerm;34054;52.100;5.116;2022-07-03T02:46:02;46.63;35.82;58.43;;
43512;Laerm;34054;52.100;5.116;2022-07-03T02:47:03;45.81;34.99;59.19;;
43512;Laerm;34054;52.100;5.116;2022-07-03T02:47:49;51.86;33.58;65.61;;
43512;Laerm;34054;52.100;5.116;2022-07-03T02:48:33;54.89;35.57;68.43;;
43512;Laerm;34054;52.100;5.116;2022-07-03T02:49:20;54.60;35.09;69.23;;
43512;Laerm;34054;52.100;5.116;2022-07-03T02:50:03;53.45;35.22;68.84;;
43512;Laerm;34054;52.100;5.116;2022-07-03T02:50:37;53.21;34.87;70.98;;
43512;Laerm;34054;52.100;5.116;2022-07-03T02:51:21;50.10;34.72;62.32;;
43512;Laerm;34054;52.100;5.116;2022-07-03T02:52:04;50.17;35.20;62.68;;
43512;Laerm;34054;52.100;5.116;2022-07-03T02:52:52;50.14;35.07;63.51;;
43512;Laerm;34054;52.100;5.116;2022-07-03T02:53:35;50.03;34.78;62.33;;
43512;Laerm;34054;52.100;5.116;2022-07-03T02:54:11;48.36;34.09;65.40;;
43512;Laerm;34054;52.100;5.116;2022-07-03T02:54:46;48.06;35.67;61.41;;
43512;Laerm;34054;52.100;5.116;2022-07-03T02:55:41;45.08;35.04;58.34;;
43512;Laerm;34054;52.100;5.116;2022-07-03T02:56:23;45.95;34.55;59.99;;
43512;Laerm;34054;52.100;5.116;2022-07-03T02:57:06;56.69;35.11;74.23;;
43512;Laerm;34054;52.100;5.116;2022-07-03T02:57:41;46.52;34.14;62.59;;
43512;Laerm;34054;52.100;5.116;2022-07-03T02:58:35;44.46;34.76;56.88;;
43512;Laerm;34054;52.100;5.116;2022-07-03T02:59:22;45.48;34.47;68.21;;
43512;Laerm;34054;52.100;5.116;2022-07-03T03:00:00;44.60;34.63;54.72;;
43512;Laerm;34054;52.100;5.116;2022-07-03T03:00:37;44.97;34.72;49.24;;
43512;Laerm;34054;52.100;5.116;2022-07-03T03:01:20;44.22;34.66;49.63;;
43512;Laerm;34054;52.100;5.116;2022-07-03T03:02:07;44.20;34.66;52.54;;
43512;Laerm;34054;52.100;5.116;2022-07-03T03:02:54;49.65;36.35;68.09;;
43512;Laerm;34054;52.100;5.116;2022-07-03T03:03:29;46.79;35.08;63.79;;
43512;Laerm;34054;52.100;5.116;2022-07-03T03:04:11;48.85;34.25;66.95;;
43512;Laerm;34054;52.100;5.116;2022-07-03T03:04:49;57.34;34.88;81.57;;
43512;Laerm;34054;52.100;5.116;2022-07-03T03:05:35;44.90;34.58;59.75;;
43512;Laerm;34054;52.100;5.116;2022-07-03T03:06:14;44.54;34.25;52.71;;
43512;Laerm;34054;52.100;5.116;2022-07-03T03:06:54;45.14;34.50;54.62;;
43512;Laerm;34054;52.100;5.116;2022-07-03T03:07:34;44.12;34.62;49.11;;
43512;Laerm;34054;52.100;5.116;2022-07-03T03:08:20;44.34;34.21;52.30;;
43512;Laerm;34054;52.100;5.116;2022-07-03T03:09:02;45.06;34.47;54.22;;
43512;Laerm;34054;52.100;5.116;2022-07-03T03:09:42;45.11;34.49;53.33;;
43512;Laerm;34054;52.100;5.116;2022-07-03T03:10:18;46.30;34.67;54.25;;
43512;Laerm;34054;52.100;5.116;2022-07-03T03:10:51;48.09;35.43;63.04;;
43512;Laerm;34054;52.100;5.116;2022-07-03T03:11:32;46.34;34.87;59.75;;
43512;Laerm;34054;52.100;5.116;2022-07-03T03:12:13;51.35;35.18;66.07;;
43512;Laerm;34054;52.100;5.116;2022-07-03T03:12:52;50.13;34.67;62.73;;
43512;Laerm;34054;52.100;5.116;2022-07-03T03:13:31;55.71;34.56;79.23;;
43512;Laerm;34054;52.100;5.116;2022-07-03T03:14:08;47.06;34.52;63.94;;
43512;Laerm;34054;52.100;5.116;2022-07-03T03:14:43;46.69;34.23;57.52;;
43512;Laerm;34054;52.100;5.116;2022-07-03T03:15:15;48.29;34.72;65.54;;
43512;Laerm;34054;52.100;5.116;2022-07-03T03:16:00;47.35;35.05;61.67;;
43512;Laerm;34054;52.100;5.116;2022-07-03T03:16:41;51.07;35.45;69.26;;
43512;Laerm;34054;52.100;5.116;2022-07-03T03:17:19;44.93;35.04;53.98;;
43512;Laerm;34054;52.100;5.116;2022-07-03T03:18:00;44.68;35.07;49.46;;
43512;Laerm;34054;52.100;5.116;2022-07-03T03:18:36;45.50;35.37;51.62;;
43512;Laerm;34054;52.100;5.116;2022-07-03T03:19:11;45.76;34.86;55.98;;
43512;Laerm;34054;52.100;5.116;2022-07-03T03:19:51;45.21;35.57;57.00;;
43512;Laerm;34054;52.100;5.116;2022-07-03T03:20:30;44.78;34.77;52.26;;
43512;Laerm;34054;52.100;5.116;2022-07-03T03:21:05;45.84;34.65;52.25;;
43512;Laerm;34054;52.100;5.116;2022-07-03T03:21:52;44.23;34.28;55.38;;
43512;Laerm;34054;52.100;5.116;2022-07-03T03:22:40;44.43;34.42;51.90;;
43512;Laerm;34054;52.100;5.116;2022-07-03T03:23:35;43.78;34.40;51.25;;
43512;Laerm;34054;52.100;5.116;2022-07-03T03:24:10;45.42;35.02;51.72;;
43512;Laerm;34054;52.100;5.116;2022-07-03T03:24:43;45.53;35.21;49.14;;
43512;Laerm;34054;52.100;5.116;2022-07-03T03:25:15;45.50;34.35;49.74;;
43512;Laerm;34054;52.100;5.116;2022-07-03T03:25:50;45.49;34.85;52.22;;
43512;Laerm;34054;52.100;5.116;2022-07-03T03:26:24;45.56;35.45;49.62;;
43512;Laerm;34054;52.100;5.116;2022-07-03T03:27:00;45.09;34.82;49.89;;
43512;Laerm;34054;52.100;5.116;2022-07-03T03:27:32;45.44;34.29;49.12;;
43512;Laerm;34054;52.100;5.116;2022-07-03T03:28:05;45.49;34.79;49.67;;
43512;Laerm;34054;52.100;5.116;2022-07-03T03:28:39;45.67;34.57;49.94;;
43512;Laerm;34054;52.100;5.116;2022-07-03T03:29:11;45.65;35.65;49.52;;
43512;Laerm;34054;52.100;5.116;2022-07-03T03:29:43;45.57;34.45;49.64;;
43512;Laerm;34054;52.100;5.116;2022-07-03T03:30:15;50.20;35.20;73.69;;
43512;Laerm;34054;52.100;5.116;2022-07-03T03:30:48;46.21;36.41;50.07;;
43512;Laerm;34054;52.100;5.116;2022-07-03T03:31:21;49.66;38.25;60.16;;
43512;Laerm;34054;52.100;5.116;2022-07-03T03:31:53;46.27;35.55;56.62;;
43512;Laerm;34054;52.100;5.116;2022-07-03T03:32:26;45.68;34.98;53.75;;